Time;durP1;ratioP1;P1;durP2;ratioP2;P2;SDS_P1;SDS_P2;PMS_P1;PMS_P2;Temp;Humidity;BMP_temperature;BMP_pressure;BME280_temperature;BME280_humidity;BME280_pressure;Samples;Min_cycle;Max_cycle;Signal;HPM_P1;HPM_P2
2022/03/27 00:02:09;;;;;;;35.92;19.95;;;8.10;99.90;;;;;;4992889;28;20101;-66
2022/03/27 00:04:37;;;;;;;37.22;21.08;;;8.10;99.90;;;;;;4990731;28;20530;-67
2022/03/27 00:07:04;;;;;;;33.67;20.58;;;8.00;99.90;;;;;;4990149;28;20054;-66
2022/03/27 00:09:31;;;;;;;40.28;20.42;;;8.00;99.90;;;;;;4997430;28;20046;-66
2022/03/27 00:11:59;;;;;;;34.03;20.67;;;7.90;99.90;;;;;;4995395;28;20042;-65
2022/03/27 00:14:26;;;;;;;36.28;21.15;;;7.90;99.90;;;;;;4994371;28;20041;-65
2022/03/27 00:16:53;;;;;;;35.95;21.50;;;7.80;99.90;;;;;;4990728;28;20043;-66
2022/03/27 00:19:20;;;;;;;34.65;20.70;;;7.80;99.90;;;;;;5005150;28;20493;-66
2022/03/27 00:21:49;;;;;;;40.72;22.08;;;7.70;99.90;;;;;;5000873;28;20053;-66
2022/03/27 00:24:17;;;;;;;34.08;20.65;;;7.70;99.90;;;;;;4992955;28;20050;-66
2022/03/27 00:26:44;;;;;;;35.97;20.25;;;7.60;99.90;;;;;;4999149;28;20066;-65
2022/03/27 00:29:11;;;;;;;35.45;21.10;;;7.60;99.90;;;;;;4996216;28;20034;-66
2022/03/27 00:31:39;;;;;;;41.70;21.38;;;7.50;99.90;;;;;;4998033;28;20042;-65
2022/03/27 00:34:07;;;;;;;43.10;22.05;;;7.50;99.90;;;;;;4995726;28;20126;-65
2022/03/27 00:36:34;;;;;;;40.38;22.25;;;7.50;99.90;;;;;;5004816;28;20043;-65
2022/03/27 00:39:01;;;;;;;34.75;20.60;;;7.40;99.90;;;;;;4992767;28;20046;-65
2022/03/27 00:41:30;;;;;;;37.78;22.55;;;7.40;99.90;;;;;;4990717;28;20081;-66
2022/03/27 00:43:57;;;;;;;34.33;20.60;;;7.40;99.90;;;;;;4973660;28;20406;-67
2022/03/27 00:46:25;;;;;;;39.63;20.20;;;7.30;99.90;;;;;;4992850;28;20087;-66
2022/03/27 00:48:52;;;;;;;39.65;20.05;;;7.30;99.90;;;;;;4989362;28;20129;-66
2022/03/27 00:51:19;;;;;;;34.85;19.92;;;7.20;99.90;;;;;;4993192;28;20145;-66
2022/03/27 00:53:47;;;;;;;36.53;20.63;;;7.20;99.90;;;;;;5005680;28;20046;-66
2022/03/27 00:56:14;;;;;;;33.47;20.25;;;7.20;99.90;;;;;;4995463;28;20259;-66
2022/03/27 00:58:42;;;;;;;39.67;20.80;;;7.20;99.90;;;;;;4993170;28;20046;-66
2022/03/27 01:01:19;;;;;;;33.50;20.02;;;7.20;99.90;;;;;;4980834;28;20066;-66
2022/03/27 01:03:48;;;;;;;31.67;19.38;;;7.20;99.90;;;;;;4993421;28;20534;-66
2022/03/27 01:06:34;;;;;;;36.38;19.35;;;7.20;99.90;;;;;;5001216;28;20046;-66
2022/03/27 01:11:50;;;;;;;33.42;19.45;;;7.20;99.90;;;;;;4996627;28;20047;-66
2022/03/27 01:14:32;;;;;;;33.80;19.15;;;7.20;99.90;;;;;;4995947;28;20458;-65
2022/03/27 01:17:02;;;;;;;38.45;20.55;;;7.20;99.90;;;;;;4991193;28;20524;-66
2022/03/27 01:19:29;;;;;;;29.90;17.88;;;7.10;99.90;;;;;;4997533;28;20097;-66
2022/03/27 01:21:57;;;;;;;32.50;17.65;;;7.10;99.90;;;;;;5001247;28;20046;-66
2022/03/27 01:24:25;;;;;;;31.17;17.42;;;7.10;99.90;;;;;;4998534;28;20038;-66
2022/03/27 01:26:52;;;;;;;29.58;17.55;;;7.10;99.90;;;;;;4992858;28;20100;-66
2022/03/27 01:29:20;;;;;;;36.17;18.33;;;7.00;99.90;;;;;;4996085;28;20414;-65
2022/03/27 01:31:47;;;;;;;38.80;18.83;;;7.00;99.90;;;;;;4999832;28;20116;-65
2022/03/27 01:34:15;;;;;;;32.65;18.05;;;7.00;99.90;;;;;;4997317;28;20049;-66
2022/03/27 01:36:42;;;;;;;30.52;17.63;;;6.90;99.90;;;;;;5006151;28;20371;-65
2022/03/27 01:39:12;;;;;;;41.15;20.42;;;6.90;99.90;;;;;;5003068;28;20054;-65
2022/03/27 01:41:40;;;;;;;38.53;22.00;;;6.90;99.90;;;;;;5012194;28;20508;-65
2022/03/27 01:44:12;;;;;;;36.40;21.02;;;6.80;99.90;;;;;;5000209;28;20046;-65
2022/03/27 01:46:42;;;;;;;42.38;21.42;;;6.80;99.90;;;;;;4992715;28;20398;-65
2022/03/27 01:49:11;;;;;;;37.00;20.77;;;6.70;99.90;;;;;;4995364;28;20046;-66
2022/03/27 01:51:41;;;;;;;31.52;19.50;;;6.70;99.90;;;;;;4993918;28;20088;-66
2022/03/27 01:54:09;;;;;;;38.33;20.73;;;6.70;99.90;;;;;;4991084;28;20057;-66
2022/03/27 01:56:38;;;;;;;37.90;21.67;;;6.60;99.90;;;;;;5001939;28;20386;-65
2022/03/27 01:59:07;;;;;;;38.63;21.15;;;6.60;99.90;;;;;;4998701;28;20495;-65
2022/03/27 02:01:36;;;;;;;34.40;20.65;;;6.50;99.90;;;;;;5010704;28;20407;-65
2022/03/27 02:04:05;;;;;;;43.42;21.00;;;6.50;99.90;;;;;;4994417;28;20080;-64
2022/03/27 02:06:37;;;;;;;42.03;22.20;;;6.50;99.90;;;;;;4992558;28;20489;-65
2022/03/27 02:09:05;;;;;;;;;;;6.40;99.90;;;;;;5000508;28;20054;-66
2022/03/27 02:11:32;;;;;;;38.47;21.15;;;6.40;99.90;;;;;;4994297;28;19976;-66
2022/03/27 02:14:00;;;;;;;37.50;21.90;;;6.40;99.90;;;;;;4992907;28;20497;-66
2022/03/27 02:16:28;;;;;;;34.72;21.13;;;6.40;99.90;;;;;;4991566;28;20145;-65
2022/03/27 02:18:56;;;;;;;42.33;24.00;;;6.30;99.90;;;;;;4991243;28;20455;-65
2022/03/27 02:21:23;;;;;;;39.17;22.17;;;6.30;99.90;;;;;;4989591;28;20072;-64
2022/03/27 02:23:51;;;;;;;43.35;23.10;;;6.20;99.90;;;;;;4990693;28;20034;-66
2022/03/27 02:26:19;;;;;;;38.83;21.70;;;6.20;99.90;;;;;;4991404;28;20568;-66
2022/03/27 02:28:46;;;;;;;43.30;22.23;;;6.20;99.90;;;;;;4990513;28;20410;-66
2022/03/27 02:31:13;;;;;;;39.38;21.77;;;6.20;99.90;;;;;;4990874;28;20066;-66
2022/03/27 02:33:40;;;;;;;39.50;22.00;;;6.10;99.90;;;;;;4988993;28;20108;-67
2022/03/27 02:36:08;;;;;;;40.85;21.70;;;6.10;99.90;;;;;;4991944;28;20042;-66
2022/03/27 02:38:37;;;;;;;35.30;21.25;;;6.10;99.90;;;;;;4991099;28;20046;-66
2022/03/27 02:41:04;;;;;;;41.40;20.60;;;6.20;99.90;;;;;;4991066;28;20046;-65
2022/03/27 02:43:33;;;;;;;42.10;21.33;;;6.10;99.90;;;;;;5003101;28;20410;-65
2022/03/27 02:46:01;;;;;;;35.92;22.52;;;6.20;99.90;;;;;;4989812;28;20050;-67
2022/03/27 02:48:28;;;;;;;40.85;21.17;;;6.20;99.90;;;;;;4989039;28;20400;-66
2022/03/27 02:50:55;;;;;;;35.28;21.40;;;6.20;99.90;;;;;;4989679;28;20441;-65
2022/03/27 02:53:23;;;;;;;34.97;21.02;;;6.10;99.90;;;;;;4988610;28;20799;-66
2022/03/27 02:55:51;;;;;;;36.80;20.60;;;6.10;99.90;;;;;;4989432;28;20117;-66
2022/03/27 02:58:22;;;;;;;38.28;21.52;;;6.10;99.90;;;;;;4990673;28;20470;-66
2022/03/27 03:00:50;;;;;;;42.88;21.98;;;6.00;99.90;;;;;;5008219;28;20038;-65
2022/03/27 03:03:17;;;;;;;44.50;22.13;;;6.00;99.90;;;;;;5010611;28;20504;-66
2022/03/27 03:05:45;;;;;;;36.00;21.50;;;6.00;99.90;;;;;;5005135;28;20046;-65
2022/03/27 03:08:12;;;;;;;36.60;21.45;;;6.00;99.90;;;;;;4989931;28;20524;-65
2022/03/27 03:10:40;;;;;;;35.63;21.50;;;6.00;99.90;;;;;;5001997;28;20118;-66
2022/03/27 03:13:09;;;;;;;41.67;22.00;;;6.00;99.90;;;;;;4989721;28;20031;-66
2022/03/27 03:15:37;;;;;;;37.00;21.25;;;5.90;99.90;;;;;;5002609;28;20156;-67
2022/03/27 03:18:06;;;;;;;42.08;22.75;;;6.00;99.90;;;;;;4997367;28;20156;-66
2022/03/27 03:20:34;;;;;;;36.28;20.58;;;6.00;99.90;;;;;;4996175;28;20387;-65
2022/03/27 03:23:06;;;;;;;41.92;21.40;;;5.90;99.90;;;;;;4995418;28;20177;-66
2022/03/27 03:25:34;;;;;;;36.42;19.83;;;5.90;99.90;;;;;;5010603;28;20480;-66
2022/03/27 03:28:22;;;;;;;33.50;19.13;;;5.80;99.90;;;;;;4997409;28;20046;-66
2022/03/27 03:30:49;;;;;;;33.97;19.60;;;5.80;99.90;;;;;;4989421;28;20047;-66
2022/03/27 03:33:17;;;;;;;38.70;18.70;;;5.80;99.90;;;;;;4997218;28;20539;-67
2022/03/27 03:35:44;;;;;;;30.55;17.88;;;5.80;99.90;;;;;;4990712;28;20034;-65
2022/03/27 03:38:12;;;;;;;32.50;16.92;;;5.80;99.90;;;;;;4990123;28;20502;-66
2022/03/27 03:40:41;;;;;;;28.50;16.35;;;5.70;99.90;;;;;;4985294;28;20512;-66
2022/03/27 03:43:11;;;;;;;31.98;18.55;;;5.70;99.90;;;;;;4988452;28;20046;-65
2022/03/27 03:45:39;;;;;;;28.27;16.75;;;5.60;99.90;;;;;;4988784;28;20136;-66
2022/03/27 03:48:06;;;;;;;34.15;17.73;;;5.60;99.90;;;;;;4988952;28;20158;-65
2022/03/27 03:50:35;;;;;;;33.75;17.40;;;5.60;99.90;;;;;;4989227;28;20100;-65
2022/03/27 03:53:03;;;;;;;31.58;17.52;;;5.60;99.90;;;;;;4988687;28;20060;-65
2022/03/27 03:55:31;;;;;;;33.28;18.13;;;5.60;99.90;;;;;;4988377;28;20060;-65
2022/03/27 03:57:58;;;;;;;37.15;18.98;;;5.50;99.90;;;;;;4994288;28;20543;-65
2022/03/27 04:00:26;;;;;;;29.63;17.80;;;5.60;99.90;;;;;;4988653;28;20497;-65
2022/03/27 04:02:54;;;;;;;31.58;18.77;;;5.60;99.90;;;;;;4990098;28;20046;-67
2022/03/27 04:05:21;;;;;;;33.15;18.13;;;5.50;99.90;;;;;;4995353;28;20035;-66
2022/03/27 04:07:49;;;;;;;30.23;17.35;;;5.50;99.90;;;;;;4988188;28;20035;-65
2022/03/27 04:10:16;;;;;;;34.92;19.05;;;5.50;99.90;;;;;;4990683;28;20601;-65
2022/03/27 04:12:43;;;;;;;34.90;18.42;;;5.50;99.90;;;;;;4994256;28;20058;-65
2022/03/27 04:15:11;;;;;;;29.92;18.38;;;5.40;99.90;;;;;;4997802;28;20053;-65
2022/03/27 04:17:48;;;;;;;28.92;17.60;;;5.30;99.90;;;;;;4988082;28;20205;-65
2022/03/27 04:20:17;;;;;;;32.03;18.52;;;5.30;99.90;;;;;;4987941;28;20054;-65
2022/03/27 04:22:45;;;;;;;35.50;19.95;;;5.20;99.90;;;;;;4989080;28;20045;-66
2022/03/27 04:25:15;;;;;;;36.17;20.48;;;5.10;99.90;;;;;;5000874;28;20050;-65
2022/03/27 04:27:44;;;;;;;34.78;19.05;;;5.10;99.90;;;;;;5001209;28;20038;-65
2022/03/27 04:30:12;;;;;;;30.75;18.10;;;5.00;99.90;;;;;;5000070;28;20049;-66
2022/03/27 04:32:40;;;;;;;35.85;19.83;;;5.00;99.90;;;;;;4991977;28;20053;-66
2022/03/27 04:35:09;;;;;;;37.22;20.00;;;5.00;99.90;;;;;;4992871;28;20508;-66
2022/03/27 04:37:41;;;;;;;33.30;19.08;;;5.10;99.90;;;;;;4992721;28;20046;-66
2022/03/27 04:40:13;;;;;;;36.70;19.50;;;5.10;99.90;;;;;;4993083;28;20047;-65
2022/03/27 04:42:41;;;;;;;30.25;17.15;;;5.10;99.90;;;;;;4990780;28;20050;-65
2022/03/27 04:45:10;;;;;;;37.65;21.25;;;5.10;99.90;;;;;;4997015;28;20065;-65
2022/03/27 04:47:38;;;;;;;36.58;20.90;;;5.10;99.90;;;;;;4992316;28;20523;-65
2022/03/27 04:50:06;;;;;;;38.53;20.58;;;5.10;99.90;;;;;;4992559;28;20556;-65
2022/03/27 04:52:33;;;;;;;40.03;18.98;;;5.10;99.90;;;;;;4991220;28;20050;-66
2022/03/27 04:55:01;;;;;;;38.03;19.50;;;5.10;99.90;;;;;;5005089;28;20517;-66
2022/03/27 04:57:37;;;;;;;40.53;19.80;;;5.20;99.90;;;;;;4991096;28;20148;-65
2022/03/27 05:00:09;;;;;;;39.60;19.48;;;5.20;99.90;;;;;;5002093;28;20122;-65
2022/03/27 05:02:41;;;;;;;35.13;19.85;;;5.10;99.90;;;;;;4995634;28;20050;-65
2022/03/27 05:05:10;;;;;;;39.75;20.67;;;5.20;99.90;;;;;;4998095;28;20655;-66
2022/03/27 05:07:40;;;;;;;34.28;20.02;;;5.20;99.90;;;;;;4991858;28;20046;-65
2022/03/27 05:10:08;;;;;;;32.85;19.65;;;5.20;99.90;;;;;;4991507;28;20057;-65
2022/03/27 05:12:36;;;;;;;39.28;19.63;;;5.20;99.90;;;;;;4991987;28;20042;-66
2022/03/27 05:15:03;;;;;;;35.22;18.60;;;5.20;99.90;;;;;;4989691;28;20066;-65
2022/03/27 05:17:30;;;;;;;34.35;18.38;;;5.20;99.90;;;;;;5000123;28;20046;-65
2022/03/27 05:19:58;;;;;;;35.60;18.23;;;5.20;99.90;;;;;;4990977;28;20577;-67
2022/03/27 05:22:25;;;;;;;29.02;17.23;;;5.30;99.90;;;;;;4990636;28;20185;-66
2022/03/27 05:24:53;;;;;;;29.17;17.13;;;5.30;99.90;;;;;;4991487;28;20054;-66
2022/03/27 05:27:21;;;;;;;30.08;18.70;;;5.30;99.90;;;;;;4992650;28;20042;-66
2022/03/27 05:29:48;;;;;;;32.75;17.73;;;5.40;99.90;;;;;;4998540;28;20129;-65
2022/03/27 05:32:15;;;;;;;32.53;18.77;;;5.30;99.90;;;;;;4996173;28;20058;-67
2022/03/27 05:34:42;;;;;;;30.88;17.15;;;5.40;99.90;;;;;;5002630;28;20111;-67
2022/03/27 05:37:10;;;;;;;34.33;18.50;;;5.40;99.90;;;;;;4990549;28;20399;-65
2022/03/27 05:39:37;;;;;;;30.75;17.67;;;5.40;99.90;;;;;;4991319;28;20061;-67
2022/03/27 05:42:05;;;;;;;33.38;17.23;;;5.50;99.90;;;;;;4990793;28;20038;-66
2022/03/27 05:44:32;;;;;;;30.25;16.85;;;5.60;99.90;;;;;;4992400;28;20047;-66
2022/03/27 05:46:59;;;;;;;29.88;17.88;;;5.60;99.90;;;;;;4993564;28;20383;-67
2022/03/27 05:49:27;;;;;;;36.70;18.52;;;5.70;99.90;;;;;;4997604;28;20052;-67
2022/03/27 05:51:54;;;;;;;35.30;18.63;;;5.70;99.90;;;;;;5004321;28;20120;-65
2022/03/27 05:54:21;;;;;;;28.38;17.45;;;5.80;99.90;;;;;;4991307;28;20038;-66
2022/03/27 05:56:49;;;;;;;31.10;18.33;;;5.80;99.90;;;;;;4998603;28;20049;-64
2022/03/27 05:59:16;;;;;;;30.17;17.40;;;5.80;99.90;;;;;;4990825;28;20381;-65
2022/03/27 06:01:44;;;;;;;30.02;17.95;;;5.90;99.90;;;;;;4992029;28;20584;-66
2022/03/27 06:04:11;;;;;;;31.65;18.45;;;6.00;99.90;;;;;;5009251;28;20058;-66
2022/03/27 06:06:38;;;;;;;30.13;18.45;;;6.10;99.90;;;;;;5002126;28;20050;-67
2022/03/27 06:09:06;;;;;;;35.05;19.60;;;6.20;99.90;;;;;;4991451;28;20541;-67
2022/03/27 06:11:34;;;;;;;30.42;18.98;;;6.20;99.90;;;;;;4997006;28;20050;-66
2022/03/27 06:14:01;;;;;;;31.83;19.00;;;6.30;99.90;;;;;;4989892;28;20445;-65
2022/03/27 06:16:28;;;;;;;34.85;18.75;;;6.40;99.90;;;;;;4990367;28;20494;-67
2022/03/27 06:18:55;;;;;;;30.88;17.70;;;6.40;99.90;;;;;;4990929;28;20073;-66
2022/03/27 06:21:23;;;;;;;30.20;17.88;;;6.50;99.90;;;;;;4989776;28;20065;-66
2022/03/27 06:23:50;;;;;;;37.90;19.42;;;6.60;99.90;;;;;;4990470;28;20050;-66
2022/03/27 06:26:17;;;;;;;32.90;18.98;;;6.70;99.90;;;;;;5001844;28;20576;-66
2022/03/27 06:28:44;;;;;;;35.05;18.98;;;6.70;99.90;;;;;;4993778;28;20038;-66
2022/03/27 06:31:12;;;;;;;31.75;19.05;;;6.80;99.90;;;;;;4999805;28;20524;-66
2022/03/27 06:33:39;;;;;;;34.88;19.40;;;6.80;99.90;;;;;;4995976;28;20081;-64
2022/03/27 06:36:06;;;;;;;34.58;19.83;;;6.90;99.90;;;;;;4990816;28;20050;-66
2022/03/27 06:38:34;;;;;;;31.70;18.75;;;6.90;99.90;;;;;;4990549;28;20065;-66
2022/03/27 06:41:02;;;;;;;38.03;20.10;;;7.00;99.90;;;;;;4993784;28;20089;-66
2022/03/27 06:43:30;;;;;;;36.17;20.10;;;7.10;99.90;;;;;;4988415;28;20520;-67
2022/03/27 06:45:57;;;;;;;34.33;20.23;;;7.20;99.90;;;;;;4991226;28;20137;-66
2022/03/27 06:48:24;;;;;;;36.38;21.67;;;7.30;99.90;;;;;;4994833;28;20042;-66
2022/03/27 06:50:52;;;;;;;34.63;20.73;;;7.40;99.90;;;;;;4990785;28;20050;-66
2022/03/27 06:53:20;;;;;;;38.53;20.98;;;7.40;99.90;;;;;;4990766;28;20035;-67
2022/03/27 06:55:48;;;;;;;33.28;21.08;;;7.50;99.90;;;;;;4993690;28;20038;-66
2022/03/27 06:58:15;;;;;;;37.50;21.55;;;7.60;99.90;;;;;;4990851;28;20048;-67
2022/03/27 07:03:29;;;;;;;38.90;22.65;;;7.80;99.90;;;;;;4997783;28;20078;-67
2022/03/27 07:05:57;;;;;;;32.33;19.25;;;7.80;99.90;;;;;;5006016;28;20096;-66
2022/03/27 07:08:24;;;;;;;36.45;20.40;;;7.90;99.90;;;;;;5000724;28;20049;-66
2022/03/27 07:10:51;;;;;;;35.92;21.02;;;8.00;99.90;;;;;;4992287;28;20050;-66
2022/03/27 07:13:19;;;;;;;36.53;21.17;;;8.00;99.90;;;;;;4990916;28;20044;-66
2022/03/27 07:15:48;;;;;;;32.05;18.00;;;8.10;99.90;;;;;;4993497;28;20061;-67
2022/03/27 07:18:17;;;;;;;37.58;19.00;;;8.20;99.90;;;;;;4995682;28;20038;-66
2022/03/27 07:20:46;;;;;;;35.97;19.15;;;8.40;99.90;;;;;;4992704;28;20145;-67
2022/03/27 07:23:19;;;;;;;30.40;18.13;;;8.50;99.90;;;;;;4990375;28;20069;-66
2022/03/27 07:25:48;;;;;;;28.80;18.52;;;8.60;99.90;;;;;;4987761;28;20041;-66
2022/03/27 07:28:18;;;;;;;27.77;17.40;;;8.70;99.90;;;;;;4995476;28;20053;-66
2022/03/27 07:30:46;;;;;;;30.80;18.17;;;8.90;99.90;;;;;;4990095;28;20038;-66
2022/03/27 07:33:15;;;;;;;29.20;17.85;;;9.10;99.90;;;;;;4990307;28;20042;-67
2022/03/27 07:35:43;;;;;;;28.73;17.20;;;9.20;99.90;;;;;;4989971;28;20474;-67
2022/03/27 07:38:10;;;;;;;26.55;16.85;;;9.30;99.90;;;;;;4990006;28;20038;-66
2022/03/27 07:40:38;;;;;;;34.60;18.23;;;9.50;99.90;;;;;;4994163;28;20050;-66
2022/03/27 07:43:06;;;;;;;34.88;20.40;;;9.60;99.90;;;;;;4991161;28;20097;-65
2022/03/27 07:45:35;;;;;;;30.92;18.88;;;9.70;99.90;;;;;;4993376;28;20070;-67
2022/03/27 07:48:03;;;;;;;35.35;21.58;;;9.90;99.90;;;;;;4994178;28;20525;-66
2022/03/27 07:50:31;;;;;;;27.33;18.52;;;10.00;99.90;;;;;;4998224;28;20494;-67
2022/03/27 07:53:00;;;;;;;28.50;18.88;;;10.10;99.90;;;;;;4993365;28;20049;-66
2022/03/27 07:55:27;;;;;;;35.65;19.85;;;10.30;99.90;;;;;;4989447;28;20104;-67
2022/03/27 07:57:56;;;;;;;29.85;19.17;;;10.40;99.90;;;;;;4990399;28;20513;-67
2022/03/27 08:00:24;;;;;;;28.67;18.40;;;10.50;99.90;;;;;;4997019;28;20037;-66
2022/03/27 08:02:51;;;;;;;30.70;20.00;;;10.70;99.90;;;;;;5000786;28;20920;-65
2022/03/27 08:05:21;;;;;;;33.20;18.77;;;10.80;99.90;;;;;;4999070;28;20041;-67
2022/03/27 08:07:49;;;;;;;33.13;20.63;;;11.00;99.90;;;;;;5002344;28;20048;-66
2022/03/27 08:10:17;;;;;;;35.55;20.17;;;11.10;99.90;;;;;;4999635;28;20046;-66
2022/03/27 08:12:46;;;;;;;33.80;19.58;;;11.20;99.90;;;;;;4997593;28;20493;-66
2022/03/27 08:15:14;;;;;;;29.95;20.00;;;11.30;99.90;;;;;;4997924;28;20109;-67
2022/03/27 08:17:49;;;;;;;30.60;19.70;;;11.30;99.90;;;;;;4995409;28;20682;-66
2022/03/27 08:20:16;;;;;;;28.80;17.50;;;11.40;99.90;;;;;;4997735;28;20050;-67
2022/03/27 08:22:43;;;;;;;31.95;18.17;;;11.60;99.90;;;;;;4993129;28;20465;-68
2022/03/27 08:26:55;;;;;;;31.83;18.67;;;11.80;99.90;;;;;;5000861;28;20422;-67
2022/03/27 08:27:58;;;;;;;26.75;17.23;;;12.00;99.90;;;;;;5000717;28;20051;-66
2022/03/27 08:30:25;;;;;;;34.53;20.25;;;12.20;99.90;;;;;;4996046;28;20043;-66
2022/03/27 08:32:52;;;;;;;32.88;18.45;;;12.40;99.90;;;;;;4993710;28;20402;-67
2022/03/27 08:35:20;;;;;;;28.77;17.63;;;12.60;99.90;;;;;;5001907;28;20540;-66
2022/03/27 08:37:47;;;;;;;31.30;17.95;;;12.70;99.90;;;;;;4995243;28;20409;-67
2022/03/27 08:40:17;;;;;;;32.42;18.98;;;12.80;99.90;;;;;;4994342;28;20042;-67
2022/03/27 08:42:44;;;;;;;33.17;19.15;;;12.90;99.90;;;;;;5011226;28;20050;-66
2022/03/27 08:45:12;;;;;;;26.27;17.88;;;12.90;99.90;;;;;;4994100;28;20057;-67
2022/03/27 08:47:40;;;;;;;27.70;16.90;;;13.00;99.90;;;;;;5003427;28;20058;-67
2022/03/27 08:50:26;;;;;;;29.42;18.35;;;13.10;99.90;;;;;;5009136;28;20042;-67
2022/03/27 08:52:59;;;;;;;26.67;16.35;;;13.30;99.90;;;;;;4992997;28;20132;-67
2022/03/27 08:55:50;;;;;;;31.50;19.27;;;13.50;99.90;;;;;;4993305;28;20050;-67
2022/03/27 08:58:21;;;;;;;30.65;17.23;;;13.70;99.90;;;;;;4993316;28;20050;-67
2022/03/27 09:00:49;;;;;;;27.30;16.42;;;13.90;99.90;;;;;;4995581;28;20413;-67
2022/03/27 09:03:20;;;;;;;22.52;16.10;;;14.10;99.90;;;;;;4996506;28;20046;-66
2022/03/27 09:05:47;;;;;;;28.80;16.63;;;14.20;99.90;;;;;;5002175;28;20045;-67
2022/03/27 09:08:15;;;;;;;27.08;17.85;;;14.40;99.90;;;;;;5002994;28;20074;-66
2022/03/27 09:10:42;;;;;;;26.08;17.95;;;14.40;99.90;;;;;;5002480;28;20042;-66
2022/03/27 09:13:17;;;;;;;25.73;16.05;;;14.40;99.90;;;;;;5003874;28;20042;-66
2022/03/27 09:15:45;;;;;;;27.55;16.45;;;14.50;99.90;;;;;;4995692;28;20038;-67
2022/03/27 09:18:14;;;;;;;24.45;15.50;;;14.70;99.90;;;;;;4992600;28;20046;-66
2022/03/27 09:20:46;;;;;;;23.33;13.95;;;14.90;99.90;;;;;;4995981;28;20520;-67
2022/03/27 09:23:22;;;;;;;22.52;14.52;;;15.10;99.90;;;;;;5008325;28;20049;-67
2022/03/27 09:25:51;;;;;;;21.42;14.25;;;15.40;99.90;;;;;;5001544;28;20113;-66
2022/03/27 09:28:39;;;;;;;22.85;13.30;;;15.70;99.90;;;;;;5009827;28;20049;-67
2022/03/27 09:31:18;;;;;;;19.45;12.05;;;16.00;99.90;;;;;;4997243;28;20488;-68
2022/03/27 09:33:49;;;;;;;20.23;13.20;;;16.30;99.90;;;;;;4993285;28;20413;-67
2022/03/27 09:36:21;;;;;;;18.30;11.57;;;16.50;99.90;;;;;;4993898;28;20049;-67
2022/03/27 09:39:02;;;;;;;18.80;11.45;;;16.70;99.90;;;;;;4992655;28;20413;-67
2022/03/27 09:41:41;;;;;;;20.30;11.60;;;16.90;99.90;;;;;;5004877;28;20053;-67
2022/03/27 09:44:16;;;;;;;17.45;11.20;;;17.20;99.90;;;;;;4976298;28;20584;-66
2022/03/27 09:46:59;;;;;;;21.75;11.93;;;17.30;99.90;;;;;;4999598;28;20638;-66
2022/03/27 09:49:37;;;;;;;15.43;10.68;;;17.40;99.90;;;;;;5003720;28;20046;-66
2022/03/27 09:52:10;;;;;;;14.45;9.68;;;17.60;99.90;;;;;;4990613;28;20466;-66
2022/03/27 09:54:49;;;;;;;16.45;11.13;;;17.70;99.90;;;;;;4991418;28;20398;-67
2022/03/27 09:57:29;;;;;;;15.57;10.18;;;17.90;99.90;;;;;;4996665;28;20121;-68
2022/03/27 10:00:11;;;;;;;14.05;8.63;;;18.10;99.90;;;;;;4994658;28;20062;-67
2022/03/27 10:02:43;;;;;;;14.55;9.27;;;18.30;99.90;;;;;;4998959;28;20134;-68
2022/03/27 10:05:15;;;;;;;15.95;10.35;;;18.50;99.90;;;;;;4997681;28;20109;-68
2022/03/27 10:07:53;;;;;;;12.52;7.95;;;18.60;99.90;;;;;;4992813;28;20113;-67
2022/03/27 10:10:23;;;;;;;12.38;7.72;;;18.70;99.90;;;;;;4997807;28;20076;-66
2022/03/27 10:12:52;;;;;;;11.80;7.85;;;18.90;99.90;;;;;;4997013;28;20046;-66
2022/03/27 10:15:22;;;;;;;12.57;8.77;;;19.00;99.90;;;;;;4994794;28;20122;-65
2022/03/27 10:18:12;;;;;;;14.00;7.85;;;19.20;99.90;;;;;;4992062;28;20042;-66
2022/03/27 10:20:39;;;;;;;11.75;6.95;;;19.20;99.90;;;;;;4996627;28;20365;-66
2022/03/27 10:23:09;;;;;;;11.02;6.93;;;19.30;99.90;;;;;;4991541;28;20482;-66
2022/03/27 10:25:48;;;;;;;13.90;8.35;;;19.40;99.90;;;;;;4994878;28;20534;-66
2022/03/27 10:28:18;;;;;;;15.80;10.65;;;19.70;99.90;;;;;;4991754;28;20501;-66
2022/03/27 10:30:47;;;;;;;10.77;8.23;;;19.90;99.90;;;;;;4996364;28;20053;-67
2022/03/27 10:33:15;;;;;;;11.18;5.50;;;20.10;99.90;;;;;;5000680;28;20449;-67
2022/03/27 10:36:08;;;;;;;9.05;4.80;;;20.30;99.90;;;;;;5003832;28;20141;-67
2022/03/27 10:38:38;;;;;;;5.80;3.30;;;20.50;99.90;;;;;;4999197;28;20069;-67
2022/03/27 10:41:24;;;;;;;7.00;3.70;;;20.70;99.90;;;;;;4992457;28;20050;-67
2022/03/27 10:43:54;;;;;;;6.10;3.47;;;20.90;99.90;;;;;;4995820;28;20449;-67
2022/03/27 10:46:24;;;;;;;5.88;3.22;;;21.10;99.90;;;;;;5004699;28;20041;-67
2022/03/27 10:49:08;;;;;;;5.65;3.45;;;21.00;99.90;;;;;;4991288;28;20065;-66
2022/03/27 10:51:38;;;;;;;7.40;4.97;;;21.00;99.90;;;;;;4994093;28;20436;-67
2022/03/27 10:54:10;;;;;;;8.88;4.47;;;21.20;99.90;;;;;;4990898;28;20046;-66
2022/03/27 10:56:48;;;;;;;9.88;4.80;;;21.40;99.90;;;;;;4990938;28;20383;-67
2022/03/27 10:59:21;;;;;;;5.70;3.90;;;21.60;99.90;;;;;;5009734;28;20136;-67
2022/03/27 11:01:50;;;;;;;5.65;3.97;;;21.70;99.00;;;;;;5005977;28;20064;-67
2022/03/27 11:04:21;;;;;;;5.90;3.80;;;22.00;98.20;;;;;;4996136;28;20490;-67
2022/03/27 11:06:49;;;;;;;6.25;4.10;;;22.20;97.90;;;;;;4998494;28;20042;-67
2022/03/27 11:09:31;;;;;;;6.88;4.45;;;22.20;97.50;;;;;;4989814;28;20149;-66
2022/03/27 11:12:00;;;;;;;7.68;4.80;;;22.60;97.00;;;;;;4991043;28;20425;-68
2022/03/27 11:14:53;;;;;;;6.38;4.47;;;22.70;96.40;;;;;;4988847;28;20042;-67
2022/03/27 11:17:38;;;;;;;7.63;4.75;;;22.90;95.90;;;;;;5003889;28;20053;-67
2022/03/27 11:20:07;;;;;;;10.38;5.85;;;23.10;95.30;;;;;;4982688;28;20053;-67
2022/03/27 11:22:40;;;;;;;6.53;4.28;;;23.10;94.70;;;;;;5004283;28;20094;-67
2022/03/27 11:25:45;;;;;;;6.90;4.63;;;23.10;94.60;;;;;;4992102;28;20038;-67
2022/03/27 11:28:20;;;;;;;7.25;4.22;;;23.30;94.10;;;;;;4989893;28;20045;-67
2022/03/27 11:30:48;;;;;;;5.55;3.50;;;23.60;93.50;;;;;;4987851;28;20144;-67
2022/03/27 11:33:22;;;;;;;5.07;3.35;;;23.80;92.60;;;;;;4990307;28;20066;-68
2022/03/27 11:36:05;;;;;;;8.70;4.35;;;24.00;92.30;;;;;;4987971;28;20129;-67
2022/03/27 11:38:35;;;;;;;5.63;3.42;;;24.20;91.70;;;;;;4991412;28;20038;-68
2022/03/27 11:41:25;;;;;;;6.50;3.30;;;24.40;91.40;;;;;;4987652;28;20076;-67
2022/03/27 11:43:57;;;;;;;6.22;3.92;;;24.80;90.90;;;;;;4989658;28;20386;-66
2022/03/27 11:46:27;;;;;;;;;;;25.10;90.30;;;;;;4993421;28;20054;-67
2022/03/27 11:48:57;;;;;;;7.03;4.20;;;25.10;89.80;;;;;;4988005;28;19922;-67
2022/03/27 11:51:24;;;;;;;5.25;2.97;;;25.20;88.70;;;;;;4988533;28;20057;-67
2022/03/27 11:53:53;;;;;;;7.30;3.30;;;25.30;88.10;;;;;;4999078;28;20555;-67
2022/03/27 11:56:21;;;;;;;6.32;3.55;;;25.80;87.10;;;;;;4988617;28;20489;-67
2022/03/27 11:59:04;;;;;;;7.22;3.75;;;26.30;85.40;;;;;;4992678;28;20050;-67
2022/03/27 12:01:32;;;;;;;5.72;3.42;;;26.20;83.90;;;;;;5004124;28;20080;-68
2022/03/27 12:04:00;;;;;;;5.00;3.25;;;26.50;83.50;;;;;;5003550;28;20045;-67
2022/03/27 12:06:29;;;;;;;5.13;2.90;;;26.90;82.50;;;;;;5009368;28;20129;-67
2022/03/27 12:08:58;;;;;;;5.68;3.50;;;27.30;81.30;;;;;;5000282;28;20050;-68
2022/03/27 12:11:26;;;;;;;5.97;3.83;;;27.60;79.90;;;;;;4999310;28;20512;-68
2022/03/27 12:13:56;;;;;;;6.63;4.78;;;27.60;78.60;;;;;;4992562;28;20065;-67
2022/03/27 12:16:25;;;;;;;8.38;4.60;;;27.90;78.60;;;;;;4989533;28;20145;-66
2022/03/27 12:18:53;;;;;;;7.15;4.07;;;28.20;78.10;;;;;;4989839;28;20041;-67
2022/03/27 12:21:22;;;;;;;7.05;4.70;;;28.50;77.30;;;;;;4997404;28;20504;-67
2022/03/27 12:23:52;;;;;;;6.85;4.55;;;28.30;76.50;;;;;;4989021;28;20050;-68
2022/03/27 12:32:14;;;;;;;7.20;4.57;;;27.00;76.70;;;;;;4989589;28;20046;-66
2022/03/27 12:34:45;;;;;;;7.05;4.05;;;26.20;78.00;;;;;;4990773;28;20046;-67
2022/03/27 12:37:16;;;;;;;5.88;4.60;;;25.70;79.10;;;;;;5002741;28;20493;-67
2022/03/27 12:39:49;;;;;;;5.93;3.28;;;25.90;79.40;;;;;;4988498;28;20054;-67
2022/03/27 12:42:35;;;;;;;6.55;4.38;;;26.30;78.70;;;;;;4988875;28;20061;-66
2022/03/27 12:45:13;;;;;;;7.30;4.40;;;25.70;79.10;;;;;;4994134;28;20080;-67
2022/03/27 12:47:58;;;;;;;6.22;3.95;;;25.70;79.50;;;;;;4991658;28;20062;-67
2022/03/27 12:50:25;;;;;;;7.20;4.63;;;26.30;78.80;;;;;;4997221;28;20053;-68
2022/03/27 12:52:56;;;;;;;7.82;4.05;;;27.10;77.20;;;;;;4990886;28;20046;-67
2022/03/27 12:55:26;;;;;;;6.22;4.05;;;27.80;75.60;;;;;;4991154;28;21028;-66
2022/03/27 12:57:55;;;;;;;5.68;3.67;;;28.20;75.10;;;;;;4992361;28;20081;-66
2022/03/27 13:00:33;;;;;;;7.18;4.25;;;28.40;73.90;;;;;;5001916;28;20046;-67
2022/03/27 13:03:20;;;;;;;6.60;3.72;;;28.20;74.60;;;;;;5000257;28;20425;-66
2022/03/27 13:05:55;;;;;;;6.30;4.05;;;28.10;74.30;;;;;;4992121;28;20046;-67